HAZ3615 ZGGG-ZPPP
Flight info
| Callsign | HAZ3615 |
|---|---|
| Flight time | N/A |
| Altitude | 36100 |
| Route | VIBOS9 VIBOS R473 ZUH R200 LH R339 BSE A599 LXI LXI9E |
| Aircraft | B77W/H-SDE1E2E3FGHIJ2J3J4J5M1RWXY/LB1D1 |
Departure
| Time | 2026-05-07 03:43 |
|---|---|
| Airport | Guangzhou Baiyun International Airport (ZGGG) |
Arrival
| Time | N/A |
|---|---|
| Airport | Kunming Changshui International Airport (ZPPP) |
| Time | Latitude | Longitude | Altitude | Speed | Heading |
|---|---|---|---|---|---|
| 2026-05-07 03:23 | 23.38301 | 113.30185 | 58 ft | 0 kts | 322° |
| 2026-05-07 03:33 | 23.38295 | 113.30190 | 58 ft | 2 kts | 321° |
| 2026-05-07 03:33 | 23.38284 | 113.30200 | 58 ft | 2 kts | 320° |
| 2026-05-07 03:33 | 23.38273 | 113.30210 | 58 ft | 2 kts | 320° |
| 2026-05-07 03:33 | 23.38261 | 113.30221 | 58 ft | 2 kts | 320° |
| 2026-05-07 03:34 | 23.38249 | 113.30231 | 58 ft | 2 kts | 320° |
| 2026-05-07 03:34 | 23.38237 | 113.30241 | 58 ft | 2 kts | 320° |
| 2026-05-07 03:34 | 23.38226 | 113.30252 | 58 ft | 2 kts | 320° |
| 2026-05-07 03:34 | 23.38214 | 113.30262 | 58 ft | 2 kts | 320° |
| 2026-05-07 03:35 | 23.38202 | 113.30273 | 58 ft | 2 kts | 320° |
| 2026-05-07 03:35 | 23.38191 | 113.30283 | 58 ft | 2 kts | 320° |
| 2026-05-07 03:35 | 23.38179 | 113.30292 | 58 ft | 2 kts | 355° |
| 2026-05-07 03:35 | 23.38171 | 113.30292 | 58 ft | 0 kts | 15° |
| 2026-05-07 03:37 | 23.38177 | 113.30293 | 58 ft | 3 kts | 15° |
| 2026-05-07 03:37 | 23.38237 | 113.30312 | 58 ft | 13 kts | 15° |
| 2026-05-07 03:37 | 23.38347 | 113.30348 | 58 ft | 16 kts | 32° |
| 2026-05-07 03:37 | 23.38361 | 113.30453 | 58 ft | 14 kts | 104° |
| 2026-05-07 03:38 | 23.38376 | 113.30547 | 58 ft | 12 kts | 35° |
| 2026-05-07 03:38 | 23.38461 | 113.30571 | 58 ft | 14 kts | 11° |
| 2026-05-07 03:38 | 23.38575 | 113.30603 | 58 ft | 19 kts | 14° |
| 2026-05-07 03:38 | 23.38720 | 113.30643 | 58 ft | 23 kts | 14° |
| 2026-05-07 03:39 | 23.38892 | 113.30690 | 58 ft | 25 kts | 14° |
| 2026-05-07 03:39 | 23.39057 | 113.30735 | 58 ft | 23 kts | 13° |
| 2026-05-07 03:39 | 23.39212 | 113.30776 | 58 ft | 23 kts | 14° |
| 2026-05-07 03:39 | 23.39381 | 113.30821 | 58 ft | 25 kts | 14° |
| 2026-05-07 03:40 | 23.39559 | 113.30870 | 58 ft | 26 kts | 14° |
| 2026-05-07 03:40 | 23.39737 | 113.30918 | 58 ft | 27 kts | 14° |
| 2026-05-07 03:40 | 23.39920 | 113.30968 | 58 ft | 25 kts | 14° |
| 2026-05-07 03:40 | 23.40089 | 113.31014 | 58 ft | 24 kts | 14° |
| 2026-05-07 03:41 | 23.40256 | 113.31059 | 58 ft | 24 kts | 13° |
| 2026-05-07 03:41 | 23.40420 | 113.31102 | 58 ft | 24 kts | 14° |
| 2026-05-07 03:41 | 23.40585 | 113.31147 | 58 ft | 24 kts | 14° |
| 2026-05-07 03:41 | 23.40698 | 113.31181 | 58 ft | 13 kts | 32° |
| 2026-05-07 03:42 | 23.40715 | 113.31271 | 58 ft | 12 kts | 102° |
| 2026-05-07 03:42 | 23.40689 | 113.31354 | 58 ft | 10 kts | 136° |
| 2026-05-07 03:42 | 23.40622 | 113.31358 | 58 ft | 9 kts | 193° |
| 2026-05-07 03:42 | 23.40543 | 113.31338 | 58 ft | 18 kts | 193° |
| 2026-05-07 03:43 | 23.40210 | 113.31247 | 58 ft | 84 kts | 194° |
| 2026-05-07 03:43 | 23.39419 | 113.31032 | 58 ft | 146 kts | 194° |
| 2026-05-07 03:43 | 23.38261 | 113.30710 | 167 ft | 188 kts | 194° |
| 2026-05-07 03:43 | 23.36979 | 113.30357 | 807 ft | 191 kts | 194° |
| 2026-05-07 03:44 | 23.35674 | 113.30009 | 1425 ft | 201 kts | 193° |
| 2026-05-07 03:44 | 23.34237 | 113.29627 | 1801 ft | 222 kts | 193° |
| 2026-05-07 03:44 | 23.32686 | 113.29209 | 2342 ft | 237 kts | 193° |
| 2026-05-07 03:44 | 23.31081 | 113.28777 | 3166 ft | 239 kts | 194° |
| 2026-05-07 03:45 | 23.29450 | 113.28467 | 3985 ft | 240 kts | 184° |
| 2026-05-07 03:45 | 23.27768 | 113.28428 | 4760 ft | 244 kts | 182° |
| 2026-05-07 03:45 | 23.26079 | 113.28423 | 5533 ft | 246 kts | 182° |
| 2026-05-07 03:45 | 23.24364 | 113.28410 | 6238 ft | 252 kts | 183° |
| 2026-05-07 03:46 | 23.22528 | 113.28392 | 6660 ft | 270 kts | 183° |
| 2026-05-07 03:46 | 23.20629 | 113.28375 | 7364 ft | 276 kts | 183° |
| 2026-05-07 03:46 | 23.18705 | 113.28283 | 8124 ft | 278 kts | 191° |
| 2026-05-07 03:46 | 23.16820 | 113.27882 | 8847 ft | 281 kts | 195° |
| 2026-05-07 03:47 | 23.14912 | 113.27406 | 9585 ft | 284 kts | 195° |
| 2026-05-07 03:47 | 23.12976 | 113.26926 | 10277 ft | 289 kts | 195° |
| 2026-05-07 03:47 | 23.10944 | 113.26427 | 10686 ft | 307 kts | 195° |
| 2026-05-07 03:47 | 23.08821 | 113.25909 | 11080 ft | 323 kts | 195° |
| 2026-05-07 03:48 | 23.06555 | 113.25358 | 11499 ft | 339 kts | 195° |
| 2026-05-07 03:48 | 23.04192 | 113.24783 | 11924 ft | 355 kts | 194° |
| 2026-05-07 03:48 | 23.01721 | 113.24236 | 12346 ft | 370 kts | 189° |
| 2026-05-07 03:48 | 22.99099 | 113.24096 | 12764 ft | 386 kts | 179° |
| 2026-05-07 03:49 | 22.96420 | 113.24497 | 13372 ft | 396 kts | 170° |
| 2026-05-07 03:49 | 22.93709 | 113.25159 | 14099 ft | 400 kts | 169° |
| 2026-05-07 03:49 | 22.90979 | 113.25837 | 14843 ft | 404 kts | 169° |
| 2026-05-07 03:49 | 22.88225 | 113.26515 | 15578 ft | 409 kts | 169° |
| 2026-05-07 03:50 | 22.85442 | 113.27196 | 16255 ft | 414 kts | 169° |
| 2026-05-07 03:50 | 22.82605 | 113.27887 | 16934 ft | 419 kts | 169° |
| 2026-05-07 03:50 | 22.79732 | 113.28584 | 17608 ft | 423 kts | 169° |
| 2026-05-07 03:50 | 22.76866 | 113.29278 | 18241 ft | 427 kts | 169° |
| 2026-05-07 03:51 | 22.73931 | 113.29987 | 18873 ft | 432 kts | 169° |
| 2026-05-07 03:51 | 22.71011 | 113.30692 | 19461 ft | 437 kts | 169° |
| 2026-05-07 03:51 | 22.68023 | 113.31413 | 20043 ft | 441 kts | 169° |
| 2026-05-07 03:51 | 22.65020 | 113.32136 | 20603 ft | 446 kts | 169° |
| 2026-05-07 03:52 | 22.61983 | 113.32922 | 21140 ft | 451 kts | 166° |
| 2026-05-07 03:52 | 22.58968 | 113.33935 | 21681 ft | 455 kts | 164° |
| 2026-05-07 03:52 | 22.55943 | 113.34985 | 22223 ft | 459 kts | 164° |
| 2026-05-07 03:52 | 22.52853 | 113.36058 | 22743 ft | 463 kts | 164° |
| 2026-05-07 03:53 | 22.49779 | 113.37123 | 23257 ft | 467 kts | 164° |
| 2026-05-07 03:53 | 22.46689 | 113.38192 | 23762 ft | 471 kts | 164° |
| 2026-05-07 03:53 | 22.43521 | 113.39287 | 24265 ft | 475 kts | 164° |
| 2026-05-07 03:53 | 22.40387 | 113.40345 | 24766 ft | 478 kts | 167° |
| 2026-05-07 03:54 | 22.37108 | 113.41019 | 25293 ft | 479 kts | 176° |
| 2026-05-07 03:54 | 22.33756 | 113.41128 | 25810 ft | 479 kts | 186° |
| 2026-05-07 03:54 | 22.30445 | 113.40665 | 26318 ft | 480 kts | 195° |
| 2026-05-07 03:54 | 22.27238 | 113.39644 | 26827 ft | 480 kts | 204° |
| 2026-05-07 03:55 | 22.24260 | 113.38112 | 27347 ft | 479 kts | 213° |
| 2026-05-07 03:55 | 22.21511 | 113.36075 | 27865 ft | 479 kts | 223° |
| 2026-05-07 03:55 | 22.19097 | 113.33601 | 28375 ft | 479 kts | 231° |
| 2026-05-07 03:55 | 22.17071 | 113.30746 | 28885 ft | 479 kts | 240° |
| 2026-05-07 03:56 | 22.15505 | 113.27638 | 29402 ft | 478 kts | 248° |
| 2026-05-07 03:56 | 22.14157 | 113.24323 | 30042 ft | 478 kts | 250° |
| 2026-05-07 03:56 | 22.12825 | 113.21099 | 30787 ft | 476 kts | 248° |
| 2026-05-07 03:56 | 22.11423 | 113.17873 | 31560 ft | 473 kts | 248° |
| 2026-05-07 03:57 | 22.10050 | 113.14693 | 32235 ft | 470 kts | 249° |
| 2026-05-07 03:57 | 22.08686 | 113.11505 | 32844 ft | 469 kts | 249° |
| 2026-05-07 03:57 | 22.07332 | 113.08318 | 33474 ft | 468 kts | 249° |
| 2026-05-07 03:57 | 22.05990 | 113.05143 | 34126 ft | 466 kts | 249° |
| 2026-05-07 03:58 | 22.04651 | 113.01968 | 34810 ft | 464 kts | 249° |
| 2026-05-07 03:58 | 22.03338 | 112.98834 | 35429 ft | 461 kts | 250° |
| 2026-05-07 03:58 | 22.02084 | 112.95652 | 35958 ft | 460 kts | 251° |
| 2026-05-07 03:59 | 21.99596 | 112.89249 | 36057 ft | 461 kts | 251° |
| 2026-05-07 03:59 | 21.97126 | 112.82909 | 36060 ft | 461 kts | 251° |
| 2026-05-07 04:00 | 21.94594 | 112.76561 | 36058 ft | 461 kts | 250° |
| 2026-05-07 04:00 | 21.92039 | 112.70236 | 36059 ft | 463 kts | 250° |
| 2026-05-07 04:01 | 21.89430 | 112.63773 | 36052 ft | 478 kts | 250° |
| 2026-05-07 04:01 | 21.86722 | 112.57075 | 36046 ft | 491 kts | 250° |
| 2026-05-07 04:02 | 21.84004 | 112.50294 | 36040 ft | 497 kts | 250° |
| 2026-05-07 04:02 | 21.81285 | 112.43434 | 36035 ft | 496 kts | 250° |
| 2026-05-07 04:03 | 21.78569 | 112.36591 | 36033 ft | 496 kts | 250° |
| 2026-05-07 04:03 | 21.75842 | 112.29731 | 36039 ft | 497 kts | 250° |
| 2026-05-07 04:04 | 21.73123 | 112.22904 | 36039 ft | 496 kts | 250° |
| 2026-05-07 04:04 | 21.70390 | 112.16052 | 36037 ft | 497 kts | 250° |
| 2026-05-07 04:05 | 21.67661 | 112.09221 | 36032 ft | 497 kts | 250° |
| 2026-05-07 04:05 | 21.64920 | 112.02369 | 36030 ft | 498 kts | 250° |
| 2026-05-07 04:06 | 21.62195 | 111.95567 | 36028 ft | 497 kts | 250° |
| 2026-05-07 04:06 | 21.59427 | 111.88669 | 36027 ft | 496 kts | 250° |
| 2026-05-07 04:07 | 21.56793 | 111.81853 | 36033 ft | 494 kts | 255° |
| 2026-05-07 04:07 | 21.54746 | 111.74798 | 36025 ft | 495 kts | 256° |
| 2026-05-07 04:08 | 21.52713 | 111.67683 | 36023 ft | 495 kts | 256° |
| 2026-05-07 04:08 | 21.50679 | 111.60590 | 36023 ft | 495 kts | 256° |
| 2026-05-07 04:09 | 21.48646 | 111.53519 | 36026 ft | 496 kts | 256° |
| 2026-05-07 04:09 | 21.46600 | 111.46417 | 36025 ft | 494 kts | 256° |
| 2026-05-07 04:10 | 21.44565 | 111.39371 | 36028 ft | 495 kts | 256° |
| 2026-05-07 04:10 | 21.42531 | 111.32340 | 36034 ft | 495 kts | 255° |
| 2026-05-07 04:11 | 21.40487 | 111.25285 | 36032 ft | 496 kts | 255° |
| 2026-05-07 04:11 | 21.38435 | 111.18218 | 36031 ft | 496 kts | 255° |
| 2026-05-07 04:12 | 21.36383 | 111.11162 | 36031 ft | 496 kts | 255° |
| 2026-05-07 04:12 | 21.34316 | 111.04067 | 36025 ft | 497 kts | 255° |
| 2026-05-07 04:13 | 21.32260 | 110.97022 | 36023 ft | 496 kts | 255° |
| 2026-05-07 04:13 | 21.30200 | 110.89975 | 36022 ft | 496 kts | 255° |
| 2026-05-07 04:14 | 21.28139 | 110.82937 | 36015 ft | 495 kts | 255° |
| 2026-05-07 04:14 | 21.26080 | 110.75914 | 36010 ft | 495 kts | 255° |
| 2026-05-07 04:15 | 21.24004 | 110.68849 | 36003 ft | 496 kts | 255° |
| 2026-05-07 04:15 | 21.21929 | 110.61797 | 36002 ft | 497 kts | 255° |
| 2026-05-07 04:16 | 21.19863 | 110.54792 | 36004 ft | 497 kts | 255° |
| 2026-05-07 04:16 | 21.17788 | 110.47763 | 36003 ft | 497 kts | 255° |
| 2026-05-07 04:17 | 21.15828 | 110.40655 | 36003 ft | 495 kts | 261° |
| 2026-05-07 04:17 | 21.15554 | 110.33350 | 36011 ft | 491 kts | 278° |
| 2026-05-07 04:18 | 21.17411 | 110.26336 | 36007 ft | 490 kts | 295° |
| 2026-05-07 04:18 | 21.20514 | 110.19783 | 36000 ft | 490 kts | 297° |
| 2026-05-07 04:19 | 21.23683 | 110.13341 | 36001 ft | 490 kts | 298° |
| 2026-05-07 04:19 | 21.26870 | 110.06925 | 36000 ft | 490 kts | 298° |
| 2026-05-07 04:20 | 21.30091 | 110.00471 | 36004 ft | 490 kts | 298° |
| 2026-05-07 04:20 | 21.33278 | 109.94097 | 35998 ft | 491 kts | 298° |
| 2026-05-07 04:21 | 21.38089 | 109.84477 | 35999 ft | 490 kts | 298° |
| 2026-05-07 04:21 | 21.41311 | 109.78032 | 35998 ft | 490 kts | 298° |
| 2026-05-07 04:22 | 21.44540 | 109.71566 | 35996 ft | 489 kts | 298° |
| 2026-05-07 04:22 | 21.47783 | 109.65068 | 35990 ft | 489 kts | 298° |
| 2026-05-07 04:23 | 21.50956 | 109.58702 | 35987 ft | 489 kts | 298° |
| 2026-05-07 04:23 | 21.54084 | 109.52418 | 35984 ft | 489 kts | 298° |